sensor_id;sensor_type;location;lat;lon;timestamp;P1;durP1;ratioP1;P2;durP2;ratioP2
39020;SDS011;25188;51.958;5.842;2022-09-03T00:02:21;2.97;;;0.73;;
39020;SDS011;25188;51.958;5.842;2022-09-03T00:10:26;3.08;;;0.85;;
39020;SDS011;25188;51.958;5.842;2022-09-03T00:12:56;1.80;;;0.43;;
39020;SDS011;25188;51.958;5.842;2022-09-03T00:15:24;4.13;;;0.68;;
39020;SDS011;25188;51.958;5.842;2022-09-03T00:17:52;3.45;;;0.80;;
39020;SDS011;25188;51.958;5.842;2022-09-03T00:23:02;7.45;;;1.10;;
39020;SDS011;25188;51.958;5.842;2022-09-03T00:28:25;3.42;;;0.50;;
39020;SDS011;25188;51.958;5.842;2022-09-03T00:31:40;1.88;;;0.63;;
39020;SDS011;25188;51.958;5.842;2022-09-03T00:33:42;4.25;;;0.80;;
39020;SDS011;25188;51.958;5.842;2022-09-03T00:36:15;3.70;;;0.80;;
39020;SDS011;25188;51.958;5.842;2022-09-03T00:38:49;3.00;;;0.50;;
39020;SDS011;25188;51.958;5.842;2022-09-03T00:44:01;2.00;;;0.52;;
39020;SDS011;25188;51.958;5.842;2022-09-03T00:49:57;2.30;;;0.77;;
39020;SDS011;25188;51.958;5.842;2022-09-03T01:00:26;4.68;;;0.55;;
39020;SDS011;25188;51.958;5.842;2022-09-03T01:03:09;1.80;;;0.60;;
39020;SDS011;25188;51.958;5.842;2022-09-03T01:05:43;2.42;;;0.50;;
39020;SDS011;25188;51.958;5.842;2022-09-03T01:13:19;4.18;;;0.57;;
39020;SDS011;25188;51.958;5.842;2022-09-03T01:15:59;3.10;;;0.80;;
39020;SDS011;25188;51.958;5.842;2022-09-03T01:18:30;1.98;;;0.60;;
39020;SDS011;25188;51.958;5.842;2022-09-03T01:21:24;4.30;;;0.80;;
39020;SDS011;25188;51.958;5.842;2022-09-03T01:24:06;4.22;;;0.80;;
39020;SDS011;25188;51.958;5.842;2022-09-03T01:35:15;3.20;;;0.60;;
39020;SDS011;25188;51.958;5.842;2022-09-03T01:38:06;1.48;;;0.60;;
39020;SDS011;25188;51.958;5.842;2022-09-03T01:44:15;2.58;;;0.65;;
39020;SDS011;25188;51.958;5.842;2022-09-03T01:47:15;3.70;;;0.60;;
39020;SDS011;25188;51.958;5.842;2022-09-03T01:50:02;2.90;;;0.60;;
39020;SDS011;25188;51.958;5.842;2022-09-03T01:52:45;4.35;;;0.73;;
39020;SDS011;25188;51.958;5.842;2022-09-03T01:58:34;5.30;;;0.85;;
39020;SDS011;25188;51.958;5.842;2022-09-03T02:01:09;3.25;;;0.80;;
39020;SDS011;25188;51.958;5.842;2022-09-03T02:03:41;3.65;;;0.65;;
39020;SDS011;25188;51.958;5.842;2022-09-03T02:06:09;2.03;;;0.50;;
39020;SDS011;25188;51.958;5.842;2022-09-03T02:08:36;4.60;;;0.70;;
39020;SDS011;25188;51.958;5.842;2022-09-03T02:11:02;1.85;;;0.63;;
39020;SDS011;25188;51.958;5.842;2022-09-03T02:13:51;4.65;;;0.60;;
39020;SDS011;25188;51.958;5.842;2022-09-03T02:16:22;1.83;;;0.68;;
39020;SDS011;25188;51.958;5.842;2022-09-03T02:18:55;3.00;;;0.60;;
39020;SDS011;25188;51.958;5.842;2022-09-03T02:21:23;1.90;;;0.60;;
39020;SDS011;25188;51.958;5.842;2022-09-03T02:23:51;2.17;;;0.70;;
39020;SDS011;25188;51.958;5.842;2022-09-03T02:26:19;4.22;;;0.68;;
39020;SDS011;25188;51.958;5.842;2022-09-03T02:28:47;2.15;;;0.70;;
39020;SDS011;25188;51.958;5.842;2022-09-03T02:31:13;4.10;;;0.70;;
39020;SDS011;25188;51.958;5.842;2022-09-03T02:33:40;5.07;;;0.60;;
39020;SDS011;25188;51.958;5.842;2022-09-03T02:36:09;5.70;;;1.00;;
39020;SDS011;25188;51.958;5.842;2022-09-03T02:38:36;2.95;;;0.77;;
39020;SDS011;25188;51.958;5.842;2022-09-03T02:41:04;1.92;;;0.70;;
39020;SDS011;25188;51.958;5.842;2022-09-03T02:43:49;3.25;;;0.93;;
39020;SDS011;25188;51.958;5.842;2022-09-03T02:46:22;9.13;;;0.85;;
39020;SDS011;25188;51.958;5.842;2022-09-03T02:48:51;4.78;;;0.90;;
39020;SDS011;25188;51.958;5.842;2022-09-03T02:51:18;3.13;;;0.63;;
39020;SDS011;25188;51.958;5.842;2022-09-03T02:53:44;5.70;;;0.70;;
39020;SDS011;25188;51.958;5.842;2022-09-03T02:56:10;2.40;;;0.70;;
39020;SDS011;25188;51.958;5.842;2022-09-03T02:58:36;3.25;;;0.65;;
39020;SDS011;25188;51.958;5.842;2022-09-03T03:01:02;4.88;;;0.70;;
39020;SDS011;25188;51.958;5.842;2022-09-03T03:03:28;4.13;;;0.80;;
39020;SDS011;25188;51.958;5.842;2022-09-03T03:05:54;3.05;;;0.60;;
39020;SDS011;25188;51.958;5.842;2022-09-03T03:08:23;2.38;;;0.55;;
39020;SDS011;25188;51.958;5.842;2022-09-03T03:10:52;2.60;;;0.65;;
39020;SDS011;25188;51.958;5.842;2022-09-03T03:13:22;2.85;;;0.70;;
39020;SDS011;25188;51.958;5.842;2022-09-03T03:15:48;2.40;;;0.85;;
39020;SDS011;25188;51.958;5.842;2022-09-03T03:18:14;4.35;;;0.70;;
39020;SDS011;25188;51.958;5.842;2022-09-03T03:20:41;3.70;;;0.70;;
39020;SDS011;25188;51.958;5.842;2022-09-03T03:23:08;3.63;;;0.77;;
39020;SDS011;25188;51.958;5.842;2022-09-03T03:25:35;2.40;;;0.60;;
39020;SDS011;25188;51.958;5.842;2022-09-03T03:28:02;4.25;;;0.90;;
39020;SDS011;25188;51.958;5.842;2022-09-03T03:30:29;2.05;;;0.50;;
39020;SDS011;25188;51.958;5.842;2022-09-03T03:32:55;3.17;;;0.60;;
39020;SDS011;25188;51.958;5.842;2022-09-03T03:35:21;3.05;;;0.80;;
39020;SDS011;25188;51.958;5.842;2022-09-03T03:37:47;2.70;;;0.55;;
39020;SDS011;25188;51.958;5.842;2022-09-03T03:40:13;5.43;;;0.70;;
39020;SDS011;25188;51.958;5.842;2022-09-03T03:42:40;3.88;;;0.70;;
39020;SDS011;25188;51.958;5.842;2022-09-03T03:45:06;2.38;;;0.77;;
39020;SDS011;25188;51.958;5.842;2022-09-03T03:47:34;3.05;;;0.80;;
39020;SDS011;25188;51.958;5.842;2022-09-03T03:50:00;2.53;;;0.70;;
39020;SDS011;25188;51.958;5.842;2022-09-03T03:52:26;2.47;;;0.52;;
39020;SDS011;25188;51.958;5.842;2022-09-03T03:54:52;4.35;;;0.70;;
39020;SDS011;25188;51.958;5.842;2022-09-03T03:57:19;2.13;;;0.80;;
39020;SDS011;25188;51.958;5.842;2022-09-03T03:59:45;1.80;;;0.50;;
39020;SDS011;25188;51.958;5.842;2022-09-03T04:02:12;2.58;;;0.60;;
39020;SDS011;25188;51.958;5.842;2022-09-03T04:04:38;1.85;;;0.60;;
39020;SDS011;25188;51.958;5.842;2022-09-03T04:07:04;2.00;;;0.70;;
39020;SDS011;25188;51.958;5.842;2022-09-03T04:09:30;3.30;;;0.90;;
39020;SDS011;25188;51.958;5.842;2022-09-03T04:11:56;3.78;;;0.60;;
39020;SDS011;25188;51.958;5.842;2022-09-03T04:14:24;3.22;;;0.90;;
39020;SDS011;25188;51.958;5.842;2022-09-03T04:16:51;2.67;;;0.70;;
39020;SDS011;25188;51.958;5.842;2022-09-03T04:19:17;3.17;;;0.82;;
39020;SDS011;25188;51.958;5.842;2022-09-03T04:21:43;2.08;;;0.60;;
39020;SDS011;25188;51.958;5.842;2022-09-03T04:24:09;2.55;;;0.80;;
39020;SDS011;25188;51.958;5.842;2022-09-03T04:26:35;2.08;;;0.73;;
39020;SDS011;25188;51.958;5.842;2022-09-03T04:29:02;3.50;;;0.80;;
39020;SDS011;25188;51.958;5.842;2022-09-03T04:31:30;2.65;;;0.60;;
39020;SDS011;25188;51.958;5.842;2022-09-03T04:33:56;4.53;;;0.80;;
39020;SDS011;25188;51.958;5.842;2022-09-03T04:36:22;2.05;;;0.60;;
39020;SDS011;25188;51.958;5.842;2022-09-03T04:38:50;1.10;;;0.43;;
39020;SDS011;25188;51.958;5.842;2022-09-03T04:41:22;1.70;;;0.63;;
39020;SDS011;25188;51.958;5.842;2022-09-03T04:43:50;1.65;;;0.60;;
39020;SDS011;25188;51.958;5.842;2022-09-03T04:46:20;1.60;;;0.57;;
39020;SDS011;25188;51.958;5.842;2022-09-03T04:48:48;1.90;;;0.52;;
39020;SDS011;25188;51.958;5.842;2022-09-03T04:51:16;1.67;;;0.52;;
39020;SDS011;25188;51.958;5.842;2022-09-03T04:53:44;2.28;;;0.55;;
39020;SDS011;25188;51.958;5.842;2022-09-03T04:58:38;3.15;;;0.70;;
39020;SDS011;25188;51.958;5.842;2022-09-03T05:01:07;3.72;;;0.50;;
39020;SDS011;25188;51.958;5.842;2022-09-03T05:03:34;1.38;;;0.60;;
39020;SDS011;25188;51.958;5.842;2022-09-03T05:06:01;1.55;;;0.65;;
39020;SDS011;25188;51.958;5.842;2022-09-03T05:08:27;1.67;;;0.60;;
39020;SDS011;25188;51.958;5.842;2022-09-03T05:10:59;2.28;;;0.57;;
39020;SDS011;25188;51.958;5.842;2022-09-03T05:13:25;2.65;;;0.90;;
39020;SDS011;25188;51.958;5.842;2022-09-03T05:15:52;4.20;;;0.75;;
39020;SDS011;25188;51.958;5.842;2022-09-03T05:18:28;4.03;;;0.77;;
39020;SDS011;25188;51.958;5.842;2022-09-03T05:21:01;1.27;;;0.47;;
39020;SDS011;25188;51.958;5.842;2022-09-03T05:23:33;1.35;;;0.50;;
39020;SDS011;25188;51.958;5.842;2022-09-03T05:26:02;2.35;;;0.50;;
39020;SDS011;25188;51.958;5.842;2022-09-03T05:28:30;2.83;;;0.60;;
39020;SDS011;25188;51.958;5.842;2022-09-03T05:30:59;2.42;;;0.50;;
39020;SDS011;25188;51.958;5.842;2022-09-03T05:33:35;2.22;;;0.57;;
39020;SDS011;25188;51.958;5.842;2022-09-03T05:36:06;2.80;;;0.73;;
39020;SDS011;25188;51.958;5.842;2022-09-03T05:38:34;3.17;;;0.70;;
39020;SDS011;25188;51.958;5.842;2022-09-03T05:41:00;3.45;;;0.60;;
39020;SDS011;25188;51.958;5.842;2022-09-03T05:43:27;3.15;;;0.50;;
39020;SDS011;25188;51.958;5.842;2022-09-03T05:46:03;2.05;;;0.60;;
39020;SDS011;25188;51.958;5.842;2022-09-03T05:48:34;2.95;;;0.50;;
39020;SDS011;25188;51.958;5.842;2022-09-03T05:51:02;3.65;;;0.60;;
39020;SDS011;25188;51.958;5.842;2022-09-03T05:53:31;1.77;;;0.60;;
39020;SDS011;25188;51.958;5.842;2022-09-03T05:55:59;3.42;;;0.75;;
39020;SDS011;25188;51.958;5.842;2022-09-03T05:58:30;1.27;;;0.50;;
39020;SDS011;25188;51.958;5.842;2022-09-03T06:00:56;5.20;;;0.65;;
39020;SDS011;25188;51.958;5.842;2022-09-03T06:03:22;1.42;;;0.50;;
39020;SDS011;25188;51.958;5.842;2022-09-03T06:05:51;2.63;;;0.70;;
39020;SDS011;25188;51.958;5.842;2022-09-03T06:08:18;2.08;;;0.70;;
39020;SDS011;25188;51.958;5.842;2022-09-03T06:10:45;2.30;;;0.70;;
39020;SDS011;25188;51.958;5.842;2022-09-03T06:13:11;1.63;;;0.63;;
39020;SDS011;25188;51.958;5.842;2022-09-03T06:15:36;2.90;;;0.68;;
39020;SDS011;25188;51.958;5.842;2022-09-03T06:18:02;3.00;;;0.60;;
39020;SDS011;25188;51.958;5.842;2022-09-03T06:20:28;1.65;;;0.55;;
39020;SDS011;25188;51.958;5.842;2022-09-03T06:22:54;3.63;;;0.50;;
39020;SDS011;25188;51.958;5.842;2022-09-03T06:25:20;2.00;;;0.60;;
39020;SDS011;25188;51.958;5.842;2022-09-03T06:27:46;1.05;;;0.50;;
39020;SDS011;25188;51.958;5.842;2022-09-03T06:30:12;3.65;;;0.60;;
39020;SDS011;25188;51.958;5.842;2022-09-03T06:32:47;3.55;;;0.52;;
39020;SDS011;25188;51.958;5.842;2022-09-03T06:35:17;1.80;;;0.70;;
39020;SDS011;25188;51.958;5.842;2022-09-03T06:37:43;2.08;;;0.60;;
39020;SDS011;25188;51.958;5.842;2022-09-03T06:40:09;4.85;;;1.15;;
39020;SDS011;25188;51.958;5.842;2022-09-03T06:42:40;1.45;;;0.60;;
39020;SDS011;25188;51.958;5.842;2022-09-03T06:45:07;2.22;;;0.50;;
39020;SDS011;25188;51.958;5.842;2022-09-03T06:47:33;1.85;;;0.60;;
39020;SDS011;25188;51.958;5.842;2022-09-03T06:49:59;5.05;;;0.60;;
39020;SDS011;25188;51.958;5.842;2022-09-03T06:52:26;1.58;;;0.57;;
39020;SDS011;25188;51.958;5.842;2022-09-03T06:54:52;1.95;;;0.50;;
39020;SDS011;25188;51.958;5.842;2022-09-03T06:57:17;1.42;;;0.55;;
39020;SDS011;25188;51.958;5.842;2022-09-03T06:59:43;1.48;;;0.70;;
39020;SDS011;25188;51.958;5.842;2022-09-03T07:02:09;1.00;;;0.30;;
39020;SDS011;25188;51.958;5.842;2022-09-03T07:04:35;3.28;;;0.50;;
39020;SDS011;25188;51.958;5.842;2022-09-03T07:07:00;2.60;;;0.50;;
39020;SDS011;25188;51.958;5.842;2022-09-03T07:09:26;4.20;;;0.70;;
39020;SDS011;25188;51.958;5.842;2022-09-03T07:11:52;2.85;;;0.77;;
39020;SDS011;25188;51.958;5.842;2022-09-03T07:14:19;5.82;;;0.68;;
39020;SDS011;25188;51.958;5.842;2022-09-03T07:16:49;5.10;;;0.60;;
39020;SDS011;25188;51.958;5.842;2022-09-03T07:19:15;2.33;;;0.63;;
39020;SDS011;25188;51.958;5.842;2022-09-03T07:21:41;3.13;;;0.60;;
39020;SDS011;25188;51.958;5.842;2022-09-03T07:24:07;1.30;;;0.40;;
39020;SDS011;25188;51.958;5.842;2022-09-03T07:26:38;1.83;;;0.43;;
39020;SDS011;25188;51.958;5.842;2022-09-03T07:29:07;1.67;;;0.50;;
39020;SDS011;25188;51.958;5.842;2022-09-03T07:31:37;2.10;;;0.50;;
39020;SDS011;25188;51.958;5.842;2022-09-03T07:34:04;2.78;;;0.45;;
39020;SDS011;25188;51.958;5.842;2022-09-03T07:36:37;1.63;;;0.40;;
39020;SDS011;25188;51.958;5.842;2022-09-03T07:39:05;2.47;;;0.47;;
39020;SDS011;25188;51.958;5.842;2022-09-03T07:41:31;4.35;;;0.50;;
39020;SDS011;25188;51.958;5.842;2022-09-03T07:43:57;2.00;;;0.75;;
39020;SDS011;25188;51.958;5.842;2022-09-03T07:46:30;2.28;;;0.50;;
39020;SDS011;25188;51.958;5.842;2022-09-03T07:48:57;3.65;;;0.60;;
39020;SDS011;25188;51.958;5.842;2022-09-03T07:51:26;1.58;;;0.50;;
39020;SDS011;25188;51.958;5.842;2022-09-03T07:54:00;6.10;;;0.55;;
39020;SDS011;25188;51.958;5.842;2022-09-03T07:56:28;1.02;;;0.25;;
39020;SDS011;25188;51.958;5.842;2022-09-03T07:58:56;4.28;;;0.60;;
39020;SDS011;25188;51.958;5.842;2022-09-03T08:01:23;2.55;;;0.40;;
39020;SDS011;25188;51.958;5.842;2022-09-03T08:03:51;4.38;;;0.70;;
39020;SDS011;25188;51.958;5.842;2022-09-03T08:06:18;4.90;;;0.40;;
39020;SDS011;25188;51.958;5.842;2022-09-03T08:08:45;2.22;;;0.43;;
39020;SDS011;25188;51.958;5.842;2022-09-03T08:11:12;2.45;;;0.57;;
39020;SDS011;25188;51.958;5.842;2022-09-03T08:13:42;3.30;;;0.52;;
39020;SDS011;25188;51.958;5.842;2022-09-03T08:16:09;4.10;;;0.60;;
39020;SDS011;25188;51.958;5.842;2022-09-03T08:18:36;5.72;;;0.30;;
39020;SDS011;25188;51.958;5.842;2022-09-03T08:21:06;1.85;;;0.40;;
39020;SDS011;25188;51.958;5.842;2022-09-03T08:23:41;3.22;;;0.63;;
39020;SDS011;25188;51.958;5.842;2022-09-03T08:26:08;1.48;;;0.40;;
39020;SDS011;25188;51.958;5.842;2022-09-03T08:28:35;4.75;;;0.40;;
39020;SDS011;25188;51.958;5.842;2022-09-03T08:31:06;1.95;;;0.40;;
39020;SDS011;25188;51.958;5.842;2022-09-03T08:33:36;2.33;;;0.55;;
39020;SDS011;25188;51.958;5.842;2022-09-03T08:36:04;1.73;;;0.50;;
39020;SDS011;25188;51.958;5.842;2022-09-03T08:38:34;1.58;;;0.40;;
39020;SDS011;25188;51.958;5.842;2022-09-03T08:43:32;1.35;;;0.40;;
39020;SDS011;25188;51.958;5.842;2022-09-03T08:46:25;2.00;;;0.52;;
39020;SDS011;25188;51.958;5.842;2022-09-03T08:49:02;2.67;;;0.40;;
39020;SDS011;25188;51.958;5.842;2022-09-03T08:51:28;1.42;;;0.40;;
39020;SDS011;25188;51.958;5.842;2022-09-03T08:53:55;1.17;;;0.40;;
39020;SDS011;25188;51.958;5.842;2022-09-03T08:56:29;4.97;;;0.60;;
39020;SDS011;25188;51.958;5.842;2022-09-03T08:58:56;2.15;;;0.50;;
39020;SDS011;25188;51.958;5.842;2022-09-03T09:23:07;2.53;;;0.47;;
39020;SDS011;25188;51.958;5.842;2022-09-03T09:25:41;4.85;;;0.60;;
39020;SDS011;25188;51.958;5.842;2022-09-03T09:28:18;4.28;;;0.50;;
39020;SDS011;25188;51.958;5.842;2022-09-03T09:30:46;3.92;;;0.60;;
39020;SDS011;25188;51.958;5.842;2022-09-03T09:33:14;1.77;;;0.50;;
39020;SDS011;25188;51.958;5.842;2022-09-03T09:35:41;3.28;;;0.50;;
39020;SDS011;25188;51.958;5.842;2022-09-03T09:38:07;1.67;;;0.47;;
39020;SDS011;25188;51.958;5.842;2022-09-03T09:40:36;2.92;;;0.50;;
39020;SDS011;25188;51.958;5.842;2022-09-03T09:43:07;1.67;;;0.45;;
39020;SDS011;25188;51.958;5.842;2022-09-03T09:45:41;4.22;;;0.40;;
39020;SDS011;25188;51.958;5.842;2022-09-03T09:53:37;1.50;;;0.50;;
39020;SDS011;25188;51.958;5.842;2022-09-03T09:56:04;0.90;;;0.40;;
39020;SDS011;25188;51.958;5.842;2022-09-03T09:58:31;2.13;;;0.55;;
39020;SDS011;25188;51.958;5.842;2022-09-03T10:01:31;2.45;;;0.55;;
39020;SDS011;25188;51.958;5.842;2022-09-03T10:03:55;1.40;;;0.47;;
39020;SDS011;25188;51.958;5.842;2022-09-03T10:06:23;2.05;;;0.50;;
39020;SDS011;25188;51.958;5.842;2022-09-03T10:09:16;2.75;;;0.50;;
39020;SDS011;25188;51.958;5.842;2022-09-03T10:11:49;2.50;;;0.47;;
39020;SDS011;25188;51.958;5.842;2022-09-03T10:14:40;1.52;;;0.32;;
39020;SDS011;25188;51.958;5.842;2022-09-03T10:26:00;4.25;;;0.50;;
39020;SDS011;25188;51.958;5.842;2022-09-03T10:28:39;1.30;;;0.30;;
39020;SDS011;25188;51.958;5.842;2022-09-03T10:36:33;1.45;;;0.57;;
39020;SDS011;25188;51.958;5.842;2022-09-03T10:39:17;1.20;;;0.40;;
39020;SDS011;25188;51.958;5.842;2022-09-03T10:42:04;2.83;;;0.45;;
39020;SDS011;25188;51.958;5.842;2022-09-03T10:50:47;1.20;;;0.40;;
39020;SDS011;25188;51.958;5.842;2022-09-03T10:56:10;1.35;;;0.50;;
39020;SDS011;25188;51.958;5.842;2022-09-03T11:06:42;2.42;;;0.40;;
39020;SDS011;25188;51.958;5.842;2022-09-03T11:09:17;2.53;;;0.40;;
39020;SDS011;25188;51.958;5.842;2022-09-03T11:12:08;2.05;;;0.50;;
39020;SDS011;25188;51.958;5.842;2022-09-03T11:14:43;6.53;;;0.60;;
39020;SDS011;25188;51.958;5.842;2022-09-03T11:17:15;2.88;;;0.60;;
39020;SDS011;25188;51.958;5.842;2022-09-03T11:19:52;2.33;;;0.40;;
39020;SDS011;25188;51.958;5.842;2022-09-03T11:22:23;0.95;;;0.45;;
39020;SDS011;25188;51.958;5.842;2022-09-03T11:24:53;5.07;;;0.47;;
39020;SDS011;25188;51.958;5.842;2022-09-03T11:33:37;1.10;;;0.32;;
39020;SDS011;25188;51.958;5.842;2022-09-03T11:36:09;0.93;;;0.30;;
39020;SDS011;25188;51.958;5.842;2022-09-03T11:38:35;3.33;;;0.32;;
39020;SDS011;25188;51.958;5.842;2022-09-03T11:41:10;2.55;;;0.52;;
39020;SDS011;25188;51.958;5.842;2022-09-03T11:43:48;2.03;;;0.30;;
39020;SDS011;25188;51.958;5.842;2022-09-03T11:51:54;1.45;;;0.40;;
39020;SDS011;25188;51.958;5.842;2022-09-03T11:54:25;2.05;;;0.50;;
39020;SDS011;25188;51.958;5.842;2022-09-03T11:59:35;2.55;;;0.50;;
39020;SDS011;25188;51.958;5.842;2022-09-03T12:02:10;3.40;;;0.43;;
39020;SDS011;25188;51.958;5.842;2022-09-03T12:05:50;3.22;;;0.40;;
39020;SDS011;25188;51.958;5.842;2022-09-03T12:10:48;2.95;;;0.50;;
39020;SDS011;25188;51.958;5.842;2022-09-03T12:14:02;1.98;;;0.35;;
39020;SDS011;25188;51.958;5.842;2022-09-03T12:18:56;1.95;;;0.45;;
39020;SDS011;25188;51.958;5.842;2022-09-03T12:21:35;1.13;;;0.40;;
39020;SDS011;25188;51.958;5.842;2022-09-03T12:24:02;2.53;;;0.30;;
39020;SDS011;25188;51.958;5.842;2022-09-03T12:26:28;2.20;;;0.50;;
39020;SDS011;25188;51.958;5.842;2022-09-03T12:28:55;1.67;;;0.40;;
39020;SDS011;25188;51.958;5.842;2022-09-03T12:31:26;1.30;;;0.40;;
39020;SDS011;25188;51.958;5.842;2022-09-03T12:33:58;1.33;;;0.45;;
39020;SDS011;25188;51.958;5.842;2022-09-03T12:36:34;3.08;;;0.30;;
39020;SDS011;25188;51.958;5.842;2022-09-03T12:39:15;4.03;;;0.68;;
39020;SDS011;25188;51.958;5.842;2022-09-03T12:44:27;1.20;;;0.40;;
39020;SDS011;25188;51.958;5.842;2022-09-03T12:49:33;2.10;;;0.50;;
39020;SDS011;25188;51.958;5.842;2022-09-03T12:52:02;1.75;;;0.57;;
39020;SDS011;25188;51.958;5.842;2022-09-03T12:54:37;1.63;;;0.37;;
39020;SDS011;25188;51.958;5.842;2022-09-03T12:57:08;2.85;;;0.50;;
39020;SDS011;25188;51.958;5.842;2022-09-03T12:59:34;4.32;;;0.50;;
39020;SDS011;25188;51.958;5.842;2022-09-03T13:02:04;3.38;;;0.38;;
39020;SDS011;25188;51.958;5.842;2022-09-03T13:04:37;2.17;;;0.43;;
39020;SDS011;25188;51.958;5.842;2022-09-03T13:10:04;1.27;;;0.40;;
39020;SDS011;25188;51.958;5.842;2022-09-03T13:12:42;2.65;;;0.45;;
39020;SDS011;25188;51.958;5.842;2022-09-03T13:15:18;0.77;;;0.40;;
39020;SDS011;25188;51.958;5.842;2022-09-03T13:20:32;2.00;;;0.57;;
39020;SDS011;25188;51.958;5.842;2022-09-03T13:23:30;1.90;;;0.45;;
39020;SDS011;25188;51.958;5.842;2022-09-03T13:26:24;4.75;;;0.43;;
39020;SDS011;25188;51.958;5.842;2022-09-03T13:29:17;1.08;;;0.43;;
39020;SDS011;25188;51.958;5.842;2022-09-03T13:31:51;2.25;;;0.60;;
39020;SDS011;25188;51.958;5.842;2022-09-03T13:34:30;3.42;;;0.50;;
39020;SDS011;25188;51.958;5.842;2022-09-03T13:39:53;2.15;;;0.60;;
39020;SDS011;25188;51.958;5.842;2022-09-03T13:42:22;2.33;;;0.65;;
39020;SDS011;25188;51.958;5.842;2022-09-03T13:45:19;2.65;;;0.60;;
39020;SDS011;25188;51.958;5.842;2022-09-03T13:48:07;4.90;;;0.63;;
39020;SDS011;25188;51.958;5.842;2022-09-03T13:53:56;2.53;;;0.80;;
39020;SDS011;25188;51.958;5.842;2022-09-03T13:59:11;1.45;;;0.50;;
39020;SDS011;25188;51.958;5.842;2022-09-03T14:02:07;2.08;;;0.50;;
39020;SDS011;25188;51.958;5.842;2022-09-03T14:04:51;1.35;;;0.63;;
39020;SDS011;25188;51.958;5.842;2022-09-03T14:07:21;2.65;;;0.75;;
39020;SDS011;25188;51.958;5.842;2022-09-03T14:09:55;4.13;;;0.60;;
39020;SDS011;25188;51.958;5.842;2022-09-03T14:12:43;3.55;;;0.70;;
39020;SDS011;25188;51.958;5.842;2022-09-03T14:15:16;3.83;;;0.60;;
39020;SDS011;25188;51.958;5.842;2022-09-03T14:23:24;2.40;;;0.55;;
39020;SDS011;25188;51.958;5.842;2022-09-03T14:26:02;4.00;;;0.70;;
39020;SDS011;25188;51.958;5.842;2022-09-03T14:28:39;3.67;;;0.70;;
39020;SDS011;25188;51.958;5.842;2022-09-03T14:33:52;1.58;;;0.60;;
39020;SDS011;25188;51.958;5.842;2022-09-03T14:36:39;1.25;;;0.60;;
39020;SDS011;25188;51.958;5.842;2022-09-03T14:50:31;1.00;;;0.50;;
39020;SDS011;25188;51.958;5.842;2022-09-03T15:01:10;2.70;;;0.70;;
39020;SDS011;25188;51.958;5.842;2022-09-03T15:11:45;6.13;;;0.90;;
39020;SDS011;25188;51.958;5.842;2022-09-03T15:14:34;2.20;;;0.65;;
39020;SDS011;25188;51.958;5.842;2022-09-03T15:20:06;1.73;;;0.60;;
39020;SDS011;25188;51.958;5.842;2022-09-03T15:28:10;3.47;;;0.80;;
39020;SDS011;25188;51.958;5.842;2022-09-03T15:30:51;1.83;;;0.60;;
39020;SDS011;25188;51.958;5.842;2022-09-03T15:33:29;1.15;;;0.45;;
39020;SDS011;25188;51.958;5.842;2022-09-03T15:44:16;2.30;;;0.50;;
39020;SDS011;25188;51.958;5.842;2022-09-03T15:52:58;1.02;;;0.50;;
39020;SDS011;25188;51.958;5.842;2022-09-03T15:55:31;3.33;;;0.70;;
39020;SDS011;25188;51.958;5.842;2022-09-03T15:58:04;2.08;;;0.60;;
39020;SDS011;25188;51.958;5.842;2022-09-03T16:00:52;2.13;;;0.90;;
39020;SDS011;25188;51.958;5.842;2022-09-03T16:03:46;3.05;;;1.00;;
39020;SDS011;25188;51.958;5.842;2022-09-03T16:06:42;2.22;;;1.02;;
39020;SDS011;25188;51.958;5.842;2022-09-03T16:14:59;1.27;;;0.65;;
39020;SDS011;25188;51.958;5.842;2022-09-03T16:17:30;2.15;;;0.75;;
39020;SDS011;25188;51.958;5.842;2022-09-03T16:25:26;3.97;;;0.80;;
39020;SDS011;25188;51.958;5.842;2022-09-03T16:28:09;3.05;;;1.38;;
39020;SDS011;25188;51.958;5.842;2022-09-03T16:33:11;3.63;;;1.40;;
39020;SDS011;25188;51.958;5.842;2022-09-03T16:41:35;2.58;;;0.60;;
39020;SDS011;25188;51.958;5.842;2022-09-03T16:44:26;2.22;;;0.70;;
39020;SDS011;25188;51.958;5.842;2022-09-03T16:49:57;4.97;;;1.10;;
39020;SDS011;25188;51.958;5.842;2022-09-03T16:55:56;5.00;;;1.98;;
39020;SDS011;25188;51.958;5.842;2022-09-03T16:58:42;4.35;;;1.98;;
39020;SDS011;25188;51.958;5.842;2022-09-03T17:04:29;3.15;;;1.30;;
39020;SDS011;25188;51.958;5.842;2022-09-03T17:15:21;2.15;;;0.98;;
39020;SDS011;25188;51.958;5.842;2022-09-03T17:18:18;2.90;;;0.90;;
39020;SDS011;25188;51.958;5.842;2022-09-03T17:26:20;3.00;;;0.77;;
39020;SDS011;25188;51.958;5.842;2022-09-03T17:31:39;3.55;;;0.88;;
39020;SDS011;25188;51.958;5.842;2022-09-03T17:37:27;2.70;;;1.00;;
39020;SDS011;25188;51.958;5.842;2022-09-03T17:40:27;4.47;;;0.70;;
39020;SDS011;25188;51.958;5.842;2022-09-03T17:48:53;4.57;;;0.80;;
39020;SDS011;25188;51.958;5.842;2022-09-03T17:56:55;1.60;;;0.70;;
39020;SDS011;25188;51.958;5.842;2022-09-03T17:59:29;2.15;;;0.80;;
39020;SDS011;25188;51.958;5.842;2022-09-03T18:05:14;2.03;;;1.00;;
39020;SDS011;25188;51.958;5.842;2022-09-03T18:08:02;2.90;;;1.00;;
39020;SDS011;25188;51.958;5.842;2022-09-03T18:10:41;2.22;;;0.98;;
39020;SDS011;25188;51.958;5.842;2022-09-03T18:18:45;2.60;;;0.90;;
39020;SDS011;25188;51.958;5.842;2022-09-03T18:21:21;3.55;;;0.80;;
39020;SDS011;25188;51.958;5.842;2022-09-03T18:27:32;2.95;;;1.00;;
39020;SDS011;25188;51.958;5.842;2022-09-03T18:30:22;3.42;;;1.05;;
39020;SDS011;25188;51.958;5.842;2022-09-03T18:33:07;6.38;;;1.10;;
39020;SDS011;25188;51.958;5.842;2022-09-03T18:35:51;3.22;;;0.90;;
39020;SDS011;25188;51.958;5.842;2022-09-03T18:38:36;2.50;;;0.90;;
39020;SDS011;25188;51.958;5.842;2022-09-03T18:44:37;5.00;;;1.10;;
39020;SDS011;25188;51.958;5.842;2022-09-03T18:50:25;1.83;;;0.85;;
39020;SDS011;25188;51.958;5.842;2022-09-03T18:53:26;1.95;;;0.90;;
39020;SDS011;25188;51.958;5.842;2022-09-03T18:56:50;2.40;;;1.20;;
39020;SDS011;25188;51.958;5.842;2022-09-03T18:59:47;2.67;;;1.27;;
39020;SDS011;25188;51.958;5.842;2022-09-03T19:05:47;1.80;;;0.90;;
39020;SDS011;25188;51.958;5.842;2022-09-03T19:11:36;2.55;;;1.10;;
39020;SDS011;25188;51.958;5.842;2022-09-03T19:14:31;2.95;;;1.25;;
39020;SDS011;25188;51.958;5.842;2022-09-03T19:20:47;3.90;;;1.05;;
39020;SDS011;25188;51.958;5.842;2022-09-03T19:23:55;3.40;;;1.10;;
39020;SDS011;25188;51.958;5.842;2022-09-03T19:30:03;2.78;;;1.40;;
39020;SDS011;25188;51.958;5.842;2022-09-03T19:35:41;3.65;;;1.27;;
39020;SDS011;25188;51.958;5.842;2022-09-03T19:38:39;4.82;;;1.67;;
39020;SDS011;25188;51.958;5.842;2022-09-03T19:48:02;3.10;;;1.20;;
39020;SDS011;25188;51.958;5.842;2022-09-03T19:51:04;6.40;;;1.35;;
39020;SDS011;25188;51.958;5.842;2022-09-03T19:53:57;2.40;;;1.52;;
39020;SDS011;25188;51.958;5.842;2022-09-03T19:56:43;3.25;;;1.27;;
39020;SDS011;25188;51.958;5.842;2022-09-03T19:59:32;4.82;;;1.20;;
39020;SDS011;25188;51.958;5.842;2022-09-03T20:02:20;4.15;;;1.30;;
39020;SDS011;25188;51.958;5.842;2022-09-03T20:05:07;3.05;;;1.27;;
39020;SDS011;25188;51.958;5.842;2022-09-03T20:07:56;4.97;;;1.40;;
39020;SDS011;25188;51.958;5.842;2022-09-03T20:10:42;3.17;;;1.50;;
39020;SDS011;25188;51.958;5.842;2022-09-03T20:13:11;3.17;;;1.58;;
39020;SDS011;25188;51.958;5.842;2022-09-03T20:21:12;3.00;;;1.48;;
39020;SDS011;25188;51.958;5.842;2022-09-03T20:29:07;4.45;;;2.08;;
39020;SDS011;25188;51.958;5.842;2022-09-03T20:32:00;3.92;;;1.95;;
39020;SDS011;25188;51.958;5.842;2022-09-03T20:34:47;5.80;;;1.90;;
39020;SDS011;25188;51.958;5.842;2022-09-03T20:37:25;5.55;;;2.20;;
39020;SDS011;25188;51.958;5.842;2022-09-03T20:42:57;5.15;;;2.20;;
39020;SDS011;25188;51.958;5.842;2022-09-03T20:45:57;5.53;;;2.15;;
39020;SDS011;25188;51.958;5.842;2022-09-03T20:51:27;5.72;;;1.88;;
39020;SDS011;25188;51.958;5.842;2022-09-03T20:54:05;4.32;;;2.00;;